Time;durP1;ratioP1;P1;durP2;ratioP2;P2;SDS_P1;SDS_P2;PMS_P1;PMS_P2;Temp;Humidity;BMP_temperature;BMP_pressure;BME280_temperature;BME280_humidity;BME280_pressure;Samples;Min_cycle;Max_cycle;Signal;HPM_P1;HPM_P2
2022/02/17 00:02:12;;;;;;;;;0.00;0.00;;;;;13.45;79.38;100122.13;5033120;28;45195;-89
2022/02/17 00:04:37;;;;;;;;;0.00;0.00;;;;;13.58;79.35;100118.78;5050657;28;45980;-86
2022/02/17 00:07:03;;;;;;;;;0.00;0.00;;;;;13.66;79.52;100152.34;5050222;28;45140;-86
2022/02/17 00:09:28;;;;;;;;;0.00;0.00;;;;;13.30;79.00;100089.41;5051049;28;45298;-85
2022/02/17 00:11:53;;;;;;;;;0.00;0.00;;;;;12.98;79.31;100014.19;5047769;28;45395;-84
2022/02/17 00:14:19;;;;;;;;;0.00;0.00;;;;;13.93;79.04;100183.47;5043113;28;45833;-87
2022/02/17 00:16:44;;;;;;;;;0.00;0.00;;;;;13.65;79.50;100116.25;5051105;28;45250;-84
2022/02/17 00:19:09;;;;;;;;;0.00;0.00;;;;;12.89;79.47;99994.72;5051314;28;45298;-89
2022/02/17 00:21:35;;;;;;;;;0.00;0.00;;;;;12.97;79.18;100000.13;5051131;28;45103;-84
2022/02/17 00:24:00;;;;;;;;;0.00;0.00;;;;;13.61;79.20;100124.13;5044379;28;45167;-87
2022/02/17 00:26:25;;;;;;;;;0.00;0.00;;;;;13.41;79.39;100098.34;5035447;28;45129;-84
2022/02/17 00:28:51;;;;;;;;;0.00;0.00;;;;;13.88;79.53;100169.31;5030710;28;44923;-83
2022/02/17 00:31:16;;;;;;;;;0.00;0.00;;;;;13.75;79.40;100158.63;5039158;28;45347;-85
2022/02/17 00:33:42;;;;;;;;;0.00;0.00;;;;;12.90;79.16;100014.06;5039725;28;46067;-87
2022/02/17 00:36:07;;;;;;;;;0.00;0.00;;;;;12.76;79.38;99979.63;5022454;28;45288;-88
2022/02/17 00:38:32;;;;;;;;;0.00;0.00;;;;;13.81;79.34;100164.84;5033020;28;45011;-86
2022/02/17 00:40:58;;;;;;;;;0.00;0.00;;;;;14.02;79.27;100217.06;5051120;28;44970;-88
2022/02/17 00:43:24;;;;;;;;;0.00;0.00;;;;;13.24;79.23;100067.31;5033059;28;47751;-85
2022/02/17 00:45:49;;;;;;;;;0.00;0.00;;;;;13.68;79.31;100160.28;5050900;28;45167;-85
2022/02/17 00:48:15;;;;;;;;;0.00;0.00;;;;;13.11;79.97;100082.97;5031111;28;45429;-88
2022/02/17 00:50:40;;;;;;;;;0.00;0.00;;;;;13.36;80.65;100126.44;5051016;28;45276;-83
2022/02/17 00:53:05;;;;;;;;;0.00;0.00;;;;;13.62;80.79;100215.66;5070365;28;45234;-89
2022/02/17 00:55:31;;;;;;;;;0.00;0.00;;;;;13.40;81.64;100173.13;5071251;28;45057;-86
2022/02/17 00:57:56;;;;;;;;;0.00;0.00;;;;;13.64;81.68;100216.56;5070990;28;45065;-88
2022/02/17 01:00:21;;;;;;;;;0.00;0.00;;;;;13.71;82.51;100231.63;5042054;28;45056;-90
2022/02/17 01:02:47;;;;;;;;;0.00;0.00;;;;;13.17;81.77;100132.31;5033178;28;45531;-84
2022/02/17 01:05:12;;;;;;;;;0.00;0.00;;;;;13.02;81.89;100134.72;5012795;28;45138;-84
2022/02/17 01:07:38;;;;;;;;;0.00;0.00;;;;;13.43;81.73;100196.91;5037148;28;45254;-88
2022/02/17 01:10:04;;;;;;;;;0.00;0.00;;;;;13.51;81.68;100206.72;5050581;28;45206;-84
2022/02/17 01:12:30;;;;;;;;;0.00;0.00;;;;;13.76;81.60;100232.59;5033201;28;46491;-85
2022/02/17 01:14:55;;;;;;;;;0.00;0.00;;;;;13.34;81.38;100175.66;5024201;28;45485;-89
2022/02/17 01:17:20;;;;;;;;;0.00;0.00;;;;;13.46;81.40;100184.66;5032548;28;45806;-90
2022/02/17 01:19:46;;;;;;;;;0.00;0.00;;;;;13.39;81.33;100173.09;5031308;28;45471;-83
2022/02/17 01:22:12;;;;;;;;;0.00;0.00;;;;;13.87;81.18;100267.94;5023771;28;46971;-83
2022/02/17 01:24:37;;;;;;;;;0.00;0.00;;;;;13.14;81.05;100164.78;5026869;28;45214;-89
2022/02/17 01:27:03;;;;;;;;;0.00;0.00;;;;;13.66;80.56;100236.84;5050281;28;45151;-89
2022/02/17 01:29:28;;;;;;;;;0.00;0.00;;;;;13.54;80.54;100214.66;5034100;28;45140;-84
2022/02/17 01:31:54;;;;;;;;;0.00;0.00;;;;;12.97;80.61;100150.47;5026217;28;47505;-83
2022/02/17 01:34:19;;;;;;;;;0.00;0.00;;;;;13.35;80.31;100230.25;5049266;28;45235;-85
2022/02/17 01:36:53;;;;;;;;;0.00;0.00;;;;;12.98;80.02;100159.28;5049455;28;45207;-84
2022/02/17 01:39:19;;;;;;;;;0.00;0.00;;;;;13.68;80.09;100314.34;5049037;28;45364;-90
2022/02/17 01:41:44;;;;;;;;;0.25;0.00;;;;;13.64;80.25;100301.06;5031302;28;47371;-84
2022/02/17 01:44:11;;;;;;;;;0.00;0.00;;;;;12.65;80.20;100132.38;5019956;28;45149;-85
2022/02/17 01:46:42;;;;;;;;;0.00;0.00;;;;;12.89;80.24;100197.81;5037214;28;45603;-84
2022/02/17 01:49:09;;;;;;;;;0.00;0.00;;;;;13.24;80.35;100279.31;5031540;28;45075;-89
2022/02/17 01:51:35;;;;;;;;;0.00;0.00;;;;;12.93;79.79;100221.63;5062214;28;45222;-85
2022/02/17 01:54:02;;;;;;;;;0.00;0.00;;;;;12.36;79.79;100137.19;5030928;28;45322;-85
2022/02/17 01:56:30;;;;;;;;;0.00;0.00;;;;;12.57;79.49;100175.31;5026763;28;45203;-84
2022/02/17 01:58:58;;;;;;;;;0.00;0.00;;;;;13.02;79.22;100248.16;5038248;28;45387;-87
2022/02/17 02:01:24;;;;;;;;;0.00;0.00;;;;;12.69;78.95;100193.06;5041699;28;46139;-88
2022/02/17 02:03:50;;;;;;;;;0.00;0.00;;;;;12.68;79.22;100208.00;5029213;28;45738;-87
2022/02/17 02:06:15;;;;;;;;;0.50;0.00;;;;;12.45;79.13;100165.41;5032492;28;45660;-86
2022/02/17 02:08:42;;;;;;;;;1.00;1.00;;;;;12.78;79.26;100215.22;5037980;28;45564;-87
2022/02/17 02:11:07;;;;;;;;;0.00;0.00;;;;;12.65;78.61;100195.66;5027243;28;46613;-88
2022/02/17 02:13:35;;;;;;;;;0.00;0.00;;;;;13.02;78.12;100246.41;5051185;28;45121;-88
2022/02/17 02:16:01;;;;;;;;;0.75;0.00;;;;;13.19;78.20;100307.34;5049906;28;44951;-87
2022/02/17 02:18:26;;;;;;;;;1.00;0.00;;;;;12.70;78.14;100248.47;5029828;28;45244;-87
2022/02/17 02:20:54;;;;;;;;;1.00;0.00;;;;;12.77;77.70;100258.28;5016843;28;47594;-85
2022/02/17 02:23:19;;;;;;;;;1.00;1.00;;;;;12.80;77.64;100263.59;5018187;28;45045;-87
2022/02/17 02:25:47;;;;;;;;;0.00;0.00;;;;;12.67;77.33;100264.25;5016867;28;45263;-88
2022/02/17 02:28:18;;;;;;;;;1.00;0.25;;;;;12.49;76.63;100227.88;5030441;28;45242;-87
2022/02/17 02:30:44;;;;;;;;;2.00;1.00;;;;;12.77;76.20;100289.94;5026218;28;47351;-88
2022/02/17 02:33:09;;;;;;;;;1.25;1.00;;;;;12.57;76.10;100271.09;5021359;28;45090;-89
2022/02/17 02:35:34;;;;;;;;;1.25;1.00;;;;;12.19;75.47;100203.59;5043158;28;45236;-88
2022/02/17 02:38:00;;;;;;;;;1.50;1.00;;;;;11.62;75.11;100123.44;5048613;28;45099;-88
2022/02/17 02:40:25;;;;;;;;;1.00;1.00;;;;;12.14;74.80;100229.84;5049995;28;45787;-87
2022/02/17 02:42:51;;;;;;;;;1.25;1.00;;;;;12.40;74.01;100289.22;5026552;28;45056;-86
2022/02/17 02:45:16;;;;;;;;;1.75;1.00;;;;;11.78;73.96;100186.09;5038821;28;45053;-88
2022/02/17 02:47:41;;;;;;;;;1.75;1.00;;;;;12.39;73.52;100297.97;5012064;28;45441;-87
2022/02/17 02:50:07;;;;;;;;;1.00;1.00;;;;;12.20;73.77;100289.66;5039191;28;45178;-89
2022/02/17 02:52:32;;;;;;;;;1.00;1.00;;;;;12.28;73.35;100296.00;5068255;28;45079;-89
2022/02/17 02:54:58;;;;;;;;;2.00;1.25;;;;;11.84;72.99;100217.84;5037045;28;45464;-84
2022/02/17 02:57:25;;;;;;;;;3.00;2.00;;;;;11.75;72.88;100224.59;5028194;28;45249;-89
2022/02/17 02:59:50;;;;;;;;;1.00;1.00;;;;;11.57;72.40;100178.59;5029163;28;45858;-88
2022/02/17 03:02:16;;;;;;;;;1.00;1.00;;;;;12.49;72.23;100317.50;5031617;28;45168;-88
2022/02/17 03:04:41;;;;;;;;;2.00;1.00;;;;;12.82;71.96;100377.94;5036716;28;45298;-86
2022/02/17 03:07:07;;;;;;;;;2.75;1.75;;;;;11.97;71.98;100236.50;5034512;28;44979;-86
2022/02/17 03:09:32;;;;;;;;;3.25;2.25;;;;;12.75;71.75;100370.72;5034153;28;45306;-84
2022/02/17 03:11:57;;;;;;;;;2.00;2.00;;;;;12.68;71.57;100376.75;5036392;28;44961;-86
2022/02/17 03:14:23;;;;;;;;;2.00;2.00;;;;;11.35;71.45;100155.31;5038953;28;45057;-88
2022/02/17 03:16:49;;;;;;;;;1.00;1.00;;;;;12.26;71.30;100318.78;5036635;28;44972;-86
2022/02/17 03:19:14;;;;;;;;;1.50;1.00;;;;;12.17;71.02;100306.31;5052199;28;45987;-87
2022/02/17 03:21:40;;;;;;;;;3.50;1.75;;;;;12.56;70.67;100376.50;5035273;28;45087;-88
2022/02/17 03:24:06;;;;;;;;;1.25;1.00;;;;;12.50;70.04;100355.28;5052795;28;45206;-88
2022/02/17 03:26:31;;;;;;;;;2.50;2.00;;;;;11.57;70.00;100180.34;5028729;28;45498;-89
2022/02/17 03:28:57;;;;;;;;;5.25;3.75;;;;;12.33;70.14;100318.94;5035377;28;45315;-87
2022/02/17 03:31:22;;;;;;;;;4.75;4.00;;;;;12.81;70.11;100397.25;5014601;28;45013;-84
2022/02/17 03:33:48;;;;;;;;;4.25;3.00;;;;;11.98;69.97;100249.72;5049270;28;45189;-87
2022/02/17 03:36:13;;;;;;;;;2.00;1.00;;;;;12.05;70.14;100256.88;5052624;28;45280;-89
2022/02/17 03:38:38;;;;;;;;;3.00;1.50;;;;;12.63;69.97;100342.38;5032429;28;46253;-88
2022/02/17 03:41:04;;;;;;;;;4.75;3.00;;;;;12.64;69.81;100351.19;5047616;28;45272;-89
2022/02/17 03:43:29;;;;;;;;;3.00;2.00;;;;;12.11;69.55;100267.53;5052610;28;45425;-88
2022/02/17 03:45:55;;;;;;;;;2.00;2.00;;;;;12.04;69.73;100263.00;5033944;28;45030;-84
2022/02/17 03:48:20;;;;;;;;;1.00;1.00;;;;;12.50;69.51;100356.19;5051992;28;45921;-88
2022/02/17 03:50:45;;;;;;;;;3.25;2.00;;;;;11.83;69.54;100259.94;5052534;28;45313;-86
2022/02/17 03:53:11;;;;;;;;;2.25;2.00;;;;;12.44;69.20;100358.69;5039299;28;45244;-88
2022/02/17 03:55:36;;;;;;;;;4.25;3.50;;;;;12.31;68.79;100360.16;5051898;28;45230;-88
2022/02/17 03:58:01;;;;;;;;;2.50;2.50;;;;;12.08;68.22;100337.72;5051928;28;45532;-88
2022/02/17 04:00:27;;;;;;;;;4.00;2.75;;;;;12.62;68.48;100432.00;5052462;28;45017;-90
2022/02/17 04:02:52;;;;;;;;;3.00;2.00;;;;;12.61;68.26;100432.84;5051617;28;45013;-86
2022/02/17 04:05:18;;;;;;;;;5.75;4.00;;;;;11.67;67.94;100308.66;5049814;28;45102;-88
2022/02/17 04:07:43;;;;;;;;;2.00;1.00;;;;;11.12;68.19;100207.41;5022377;28;47402;-84
2022/02/17 04:10:09;;;;;;;;;4.75;3.25;;;;;12.19;67.76;100419.63;5021375;28;45183;-87
2022/02/17 04:12:34;;;;;;;;;5.50;4.00;;;;;12.18;67.42;100396.78;4994971;28;45663;-89
2022/02/17 04:15:00;;;;;;;;;3.00;3.00;;;;;11.68;67.82;100328.00;4994770;28;45043;-88
2022/02/17 04:17:25;;;;;;;;;4.50;2.00;;;;;11.69;67.82;100325.41;4997025;28;45315;-86
2022/02/17 04:19:50;;;;;;;;;4.75;4.00;;;;;12.47;68.23;100463.31;5004386;28;44994;-87
2022/02/17 04:22:16;;;;;;;;;4.00;2.50;;;;;11.91;68.03;100361.03;4991570;28;45152;-84
2022/02/17 04:24:42;;;;;;;;;4.25;4.00;;;;;12.20;68.54;100406.47;4991728;28;45438;-87
2022/02/17 04:27:07;;;;;;;;;3.00;2.00;;;;;12.26;68.19;100424.16;4990627;28;45248;-85
2022/02/17 04:29:34;;;;;;;;;4.00;2.50;;;;;12.60;67.63;100470.63;4991447;28;45251;-87
2022/02/17 04:31:59;;;;;;;;;3.25;2.00;;;;;11.98;67.70;100372.63;4996529;28;45370;-89
2022/02/17 04:34:24;;;;;;;;;8.25;5.00;;;;;12.68;67.35;100486.63;4994980;28;45519;-88
2022/02/17 04:36:50;;;;;;;;;5.50;3.00;;;;;12.49;67.31;100443.13;5003273;28;45713;-88
2022/02/17 04:39:15;;;;;;;;;5.00;3.25;;;;;11.91;67.39;100368.94;5010249;28;45203;-88
2022/02/17 04:44:24;;;;;;;;;7.00;4.25;;;;;12.01;66.90;100410.44;5011745;28;45179;-87
2022/02/17 04:46:50;;;;;;;;;6.50;4.50;;;;;12.40;67.12;100481.59;5008586;28;45551;-89
2022/02/17 04:49:16;;;;;;;;;6.00;4.00;;;;;12.34;66.98;100460.38;5003490;28;45883;-88
2022/02/17 04:51:42;;;;;;;;;5.25;3.00;;;;;12.18;66.79;100439.81;4999494;28;45549;-89
2022/02/17 04:54:07;;;;;;;;;5.00;4.00;;;;;12.53;66.84;100501.22;5000786;28;45101;-88
2022/02/17 04:56:33;;;;;;;;;6.25;5.25;;;;;11.67;66.31;100357.78;4995032;28;45838;-88
2022/02/17 04:58:58;;;;;;;;;6.50;4.50;;;;;12.59;66.33;100517.19;4999908;28;45091;-89
2022/02/17 05:01:24;;;;;;;;;3.25;2.00;;;;;12.90;66.46;100574.13;5003993;28;45140;-88
2022/02/17 05:03:49;;;;;;;;;4.75;4.00;;;;;12.69;66.16;100543.75;5002493;28;45444;-90
2022/02/17 05:06:15;;;;;;;;;7.00;5.00;;;;;12.19;65.79;100469.69;5011629;28;45904;-89
2022/02/17 05:08:40;;;;;;;;;5.75;3.00;;;;;11.55;65.71;100358.41;5007966;28;45537;-87
2022/02/17 05:11:06;;;;;;;;;7.50;6.00;;;;;12.19;65.36;100485.50;5027193;28;45870;-88
2022/02/17 05:13:32;;;;;;;;;5.00;4.00;;;;;11.92;65.35;100448.81;5047852;28;45167;-86
2022/02/17 05:15:57;;;;;;;;;7.50;5.50;;;;;12.47;66.00;100555.56;5034405;28;47294;-88
2022/02/17 05:18:23;;;;;;;;;14.00;7.75;;;;;12.21;65.37;100516.28;5033043;28;45144;-87
2022/02/17 05:20:48;;;;;;;;;5.25;3.75;;;;;12.50;65.14;100584.63;5050695;28;45140;-88
2022/02/17 05:23:13;;;;;;;;;9.75;6.75;;;;;11.78;65.14;100452.00;5050538;28;45192;-88
2022/02/17 05:25:39;;;;;;;;;9.00;7.75;;;;;12.40;65.02;100563.31;5037858;28;45716;-87
2022/02/17 05:28:05;;;;;;;;;9.00;5.25;;;;;12.04;64.61;100526.41;5040940;28;45699;-83
2022/02/17 05:30:40;;;;;;;;;7.50;6.25;;;;;12.08;64.55;100546.72;5042928;28;45308;-83
2022/02/17 05:33:10;;;;;;;;;8.00;6.00;;;;;11.66;64.11;100477.13;5034964;28;46916;-85
2022/02/17 05:35:36;;;;;;;;;9.00;6.50;;;;;12.05;64.20;100551.00;5036332;28;45614;-85
2022/02/17 05:38:02;;;;;;;;;9.00;6.00;;;;;11.80;64.39;100523.13;5049040;28;45318;-88
2022/02/17 05:40:27;;;;;;;;;5.75;5.25;;;;;11.66;64.16;100496.44;5050107;28;45900;-87
2022/02/17 05:42:52;;;;;;;;;10.75;5.75;;;;;12.20;64.42;100588.28;5050172;28;45242;-87
2022/02/17 05:45:18;;;;;;;;;11.00;7.75;;;;;12.06;64.08;100587.03;5026378;28;47550;-84
2022/02/17 05:47:43;;;;;;;;;5.00;5.00;;;;;11.50;63.91;100523.19;5042760;28;45151;-87
2022/02/17 05:50:09;;;;;;;;;5.25;4.50;;;;;12.30;63.52;100648.25;5031371;28;45217;-87
2022/02/17 05:52:35;;;;;;;;;6.75;3.75;;;;;11.49;63.64;100530.22;5050887;28;45544;-86
2022/02/17 05:55:01;;;;;;;;;7.00;5.50;;;;;11.20;63.82;100486.41;5049863;28;45155;-84
2022/02/17 05:57:26;;;;;;;;;9.00;6.50;;;;;11.54;64.05;100546.13;5048615;28;45154;-88
2022/02/17 05:59:51;;;;;;;;;6.00;4.75;;;;;10.90;63.73;100442.63;5049048;28;45177;-87
2022/02/17 06:02:17;;;;;;;;;6.50;5.50;;;;;11.28;64.59;100503.28;5049836;28;44990;-87
2022/02/17 06:04:43;;;;;;;;;5.75;4.50;;;;;11.59;64.62;100555.03;5049704;28;45247;-90
2022/02/17 06:07:13;;;;;;;;;8.50;7.00;;;;;11.29;64.71;100534.91;5049782;28;45502;-87
2022/02/17 06:09:43;;;;;;;;;6.50;5.00;;;;;11.01;65.48;100501.66;5047846;28;45171;-87
2022/02/17 06:12:09;;;;;;;;;8.00;6.00;;;;;11.90;65.64;100677.03;5029168;28;45569;-90
2022/02/17 06:14:35;;;;;;;;;8.25;5.50;;;;;10.91;65.81;100511.88;5049261;28;45505;-88
2022/02/17 06:17:00;;;;;;;;;6.50;6.00;;;;;11.24;65.90;100589.16;5048500;28;45420;-85
2022/02/17 06:19:25;;;;;;;;;7.33;6.00;;;;;10.25;66.13;100421.47;5045829;28;45195;-88
2022/02/17 06:21:51;;;;;;;;;6.75;5.00;;;;;11.07;66.36;100580.75;5048815;28;45502;-85
2022/02/17 06:24:16;;;;;;;;;10.75;8.00;;;;;11.08;66.47;100592.16;5049150;28;45863;-84
2022/02/17 06:26:41;;;;;;;;;10.50;7.00;;;;;11.41;66.03;100638.72;5047204;28;45125;-86
2022/02/17 06:29:07;;;;;;;;;8.50;6.50;;;;;11.13;66.10;100595.81;5048622;28;45022;-89
2022/02/17 06:31:32;;;;;;;;;10.00;6.33;;;;;11.31;66.08;100633.19;5047829;28;45082;-83
2022/02/17 06:33:58;;;;;;;;;10.00;5.75;;;;;11.61;65.07;100708.63;5030005;28;47280;-86
2022/02/17 06:36:23;;;;;;;;;10.00;6.00;;;;;10.46;64.93;100507.03;5042669;28;45259;-87
2022/02/17 06:38:49;;;;;;;;;13.75;7.75;;;;;10.53;65.22;100527.38;5036861;28;45211;-87
2022/02/17 06:41:18;;;;;;;;;8.50;5.00;;;;;11.11;64.64;100636.97;5043707;28;45228;-86
2022/02/17 06:43:44;;;;;;;;;6.25;5.00;;;;;11.33;64.35;100678.00;5010665;28;46286;-86
2022/02/17 06:46:10;;;;;;;;;6.50;6.00;;;;;11.26;64.31;100689.16;5013752;28;45595;-88
2022/02/17 06:48:35;;;;;;;;;9.50;5.75;;;;;10.74;64.39;100645.47;5036908;28;45369;-89
2022/02/17 06:51:00;;;;;;;;;11.00;7.25;;;;;10.93;64.15;100644.28;5053048;28;45088;-88
2022/02/17 06:53:26;;;;;;;;;12.00;8.25;;;;;10.50;63.86;100569.34;5028770;28;47482;-89
2022/02/17 06:55:51;;;;;;;;;7.00;5.25;;;;;10.47;63.82;100585.00;5029537;28;45290;-89
2022/02/17 06:58:17;;;;;;;;;7.75;5.25;;;;;10.44;64.15;100590.13;5047708;28;45361;-85
2022/02/17 07:00:42;;;;;;;;;10.75;8.75;;;;;10.35;63.91;100564.50;5047346;28;45191;-89
2022/02/17 07:03:08;;;;;;;;;12.00;9.50;;;;;10.97;63.80;100682.97;5048259;28;45299;-89
2022/02/17 07:05:34;;;;;;;;;15.75;11.25;;;;;10.39;64.01;100603.13;5029927;28;45076;-88
2022/02/17 07:08:00;;;;;;;;;11.00;6.50;;;;;11.37;64.06;100746.50;5047695;28;45310;-87
2022/02/17 07:13:10;;;;;;;;;10.25;6.00;;;;;11.02;64.33;100699.78;5048050;28;45044;-87
2022/02/17 07:15:36;;;;;;;;;6.50;5.75;;;;;10.99;64.08;100715.50;5047977;28;45591;-86
2022/02/17 07:18:06;;;;;;;;;7.00;6.00;;;;;11.34;63.91;100771.88;5030128;28;45084;-87
2022/02/17 07:20:32;;;;;;;;;8.25;7.00;;;;;11.26;64.27;100776.88;5028587;28;46232;-87
2022/02/17 07:22:58;;;;;;;;;9.00;6.50;;;;;11.35;64.46;100790.31;5031152;28;46304;-89
2022/02/17 07:25:24;;;;;;;;;10.00;6.50;;;;;11.39;64.37;100783.44;5011464;28;45752;-87
2022/02/17 07:27:50;;;;;;;;;11.25;7.00;;;;;10.52;64.49;100639.47;5032899;28;45336;-85
2022/02/17 07:30:15;;;;;;;;;9.50;8.25;;;;;10.78;64.59;100677.13;5030273;28;45513;-88
2022/02/17 07:32:41;;;;;;;;;8.25;6.50;;;;;10.80;64.54;100682.44;5028772;28;47530;-86
2022/02/17 07:35:07;;;;;;;;;6.00;5.00;;;;;11.14;64.92;100754.56;5029915;28;45397;-88
2022/02/17 07:37:33;;;;;;;;;10.00;8.25;;;;;11.08;64.98;100748.25;5037807;28;45208;-88
2022/02/17 07:39:59;;;;;;;;;8.75;6.50;;;;;11.34;65.01;100806.97;5046868;28;45091;-87
2022/02/17 07:42:24;;;;;;;;;11.00;7.25;;;;;10.57;64.95;100692.19;5022088;28;46768;-87
2022/02/17 07:44:52;;;;;;;;;12.50;9.75;;;;;10.61;65.43;100683.56;5039730;28;45481;-88
2022/02/17 07:47:17;;;;;;;;;12.00;10.50;;;;;10.73;65.31;100718.13;5034525;28;45338;-89
2022/02/17 07:49:43;;;;;;;;;10.00;4.00;;;;;11.20;65.01;100807.34;5021538;28;45551;-86
2022/02/17 07:52:08;;;;;;;;;6.50;6.00;;;;;10.45;64.89;100669.03;5056031;28;45387;-89
2022/02/17 07:54:33;;;;;;;;;15.25;9.75;;;;;10.91;65.15;100754.69;5058253;28;45391;-87
2022/02/17 07:57:02;;;;;;;;;7.75;6.00;;;;;10.34;65.04;100657.25;5067060;28;45123;-87
2022/02/17 07:59:28;;;;;;;;;10.75;7.75;;;;;11.13;64.91;100764.16;5041544;28;45264;-87
2022/02/17 08:01:53;;;;;;;;;10.75;7.00;;;;;11.28;64.77;100780.47;5059331;28;45690;-87
2022/02/17 08:04:19;;;;;;;;;11.75;9.25;;;;;10.63;64.56;100681.88;5044888;28;45439;-86
2022/02/17 08:06:44;;;;;;;;;9.25;7.00;;;;;10.76;64.42;100726.13;5052182;28;44915;-88
2022/02/17 08:09:09;;;;;;;;;12.25;10.25;;;;;10.61;65.00;100688.84;5071486;28;44989;-89
2022/02/17 08:11:35;;;;;;;;;11.75;10.00;;;;;10.65;64.43;100698.59;5032702;28;47049;-88
2022/02/17 08:14:00;;;;;;;;;11.67;10.00;;;;;11.22;64.26;100782.88;5030559;28;45102;-89
2022/02/17 08:16:26;;;;;;;;;10.25;9.25;;;;;11.20;64.68;100784.56;5031229;28;45193;-87
2022/02/17 08:18:52;;;;;;;;;8.75;6.25;;;;;10.75;64.10;100724.34;5030856;28;45151;-87
2022/02/17 08:21:17;;;;;;;;;25.00;16.50;;;;;10.90;63.73;100763.41;5029462;28;47376;-85
2022/02/17 08:23:43;;;;;;;;;14.00;10.75;;;;;11.24;63.76;100817.13;5030246;28;45152;-88
2022/02/17 08:26:08;;;;;;;;;14.00;10.50;;;;;11.09;63.76;100804.38;5030961;28;45222;-88
2022/02/17 08:28:34;;;;;;;;;11.25;7.75;;;;;11.06;63.69;100799.00;5030339;28;45345;-89
2022/02/17 08:31:00;;;;;;;;;13.00;10.00;;;;;10.54;64.07;100715.72;5029444;28;45400;-88
2022/02/17 08:33:25;;;;;;;;;13.50;11.00;;;;;11.57;64.05;100907.69;5029552;28;45281;-89
2022/02/17 08:35:51;;;;;;;;;11.75;8.00;;;;;10.72;63.76;100750.53;5028962;28;45195;-85
2022/02/17 08:38:17;;;;;;;;;10.50;7.25;;;;;10.98;64.16;100777.69;5045771;28;45215;-89
2022/02/17 08:40:42;;;;;;;;;11.00;8.50;;;;;11.91;63.63;100911.47;5030318;28;45787;-84
2022/02/17 08:43:11;;;;;;;;;14.00;10.75;;;;;11.66;63.32;100867.63;5030101;28;45220;-86
2022/02/17 08:45:37;;;;;;;;;13.50;9.00;;;;;11.97;63.20;100926.56;5030280;28;44949;-88
2022/02/17 08:48:02;;;;;;;;;11.25;8.00;;;;;11.65;63.17;100857.06;5030450;28;45021;-88
2022/02/17 08:50:28;;;;;;;;;13.50;11.75;;;;;10.85;62.90;100733.44;5020926;28;46979;-84
2022/02/17 08:52:53;;;;;;;;;12.25;9.00;;;;;10.93;63.09;100750.34;5007980;28;45291;-83
2022/02/17 08:55:19;;;;;;;;;10.00;7.75;;;;;11.07;63.28;100790.25;5010455;28;45179;-85
2022/02/17 08:57:47;;;;;;;;;9.50;6.50;;;;;11.60;63.08;100884.13;4997496;28;45475;-84
2022/02/17 09:00:14;;;;;;;;;10.00;6.00;;;;;11.18;62.68;100801.13;4990966;28;45675;-82
2022/02/17 09:02:40;;;;;;;;;12.50;8.75;;;;;11.40;62.77;100840.47;4992157;28;45877;-82
2022/02/17 09:05:06;;;;;;;;;9.50;7.00;;;;;11.69;62.65;100886.16;4991065;28;45428;-82
2022/02/17 09:07:31;;;;;;;;;14.25;8.75;;;;;11.97;62.62;100926.56;4991187;28;45469;-82
2022/02/17 09:09:57;;;;;;;;;11.50;10.50;;;;;12.02;62.86;100912.72;4994716;28;48335;-82
2022/02/17 09:12:22;;;;;;;;;9.25;7.75;;;;;10.95;62.08;100725.00;5013029;28;45575;-83
2022/02/17 09:14:47;;;;;;;;;14.25;8.25;;;;;12.04;62.37;100912.75;5030538;28;45549;-82
2022/02/17 09:17:13;;;;;;;;;10.75;8.00;;;;;11.72;62.29;100862.53;5031160;28;45531;-82
2022/02/17 09:19:38;;;;;;;;;11.00;9.33;;;;;11.26;62.20;100755.81;5012912;28;48096;-82
2022/02/17 09:22:04;;;;;;;;;9.25;7.50;;;;;12.37;62.05;100934.00;5030122;28;45535;-82
2022/02/17 09:24:29;;;;;;;;;13.00;8.00;;;;;12.56;61.73;100951.22;5031434;28;45423;-82
2022/02/17 09:26:55;;;;;;;;;12.75;8.75;;;;;12.66;61.55;100932.22;5030626;28;45481;-83
2022/02/17 09:29:20;;;;;;;;;10.75;7.50;;;;;12.78;61.71;100961.56;5030381;28;45547;-82
2022/02/17 09:31:46;;;;;;;;;12.75;7.75;;;;;12.46;61.29;100876.25;5030879;28;45589;-83
2022/02/17 09:34:12;;;;;;;;;12.50;11.00;;;;;12.07;60.81;100802.22;5031073;28;45366;-82
2022/02/17 09:36:38;;;;;;;;;11.00;8.00;;;;;13.05;61.05;100952.63;5012338;28;45577;-82
2022/02/17 09:39:05;;;;;;;;;11.75;6.00;;;;;12.19;60.75;100830.66;5030501;28;46136;-82
2022/02/17 09:41:31;;;;;;;;;11.00;9.50;;;;;12.56;60.35;100898.50;5013041;28;45434;-82
2022/02/17 09:44:06;;;;;;;;;14.75;12.00;;;;;12.88;60.51;100947.78;5030155;28;45888;-84
2022/02/17 09:46:33;;;;;;;;;9.75;7.50;;;;;12.29;60.10;100836.22;5031236;28;45642;-82
2022/02/17 09:49:02;;;;;;;;;15.50;10.75;;;;;12.75;60.12;100902.56;5012139;28;47350;-83
2022/02/17 09:51:32;;;;;;;;;7.00;6.00;;;;;12.58;59.94;100881.00;5030669;28;45758;-83
2022/02/17 09:53:58;;;;;;;;;10.25;9.25;;;;;12.90;59.82;100932.88;5030352;28;45313;-82
2022/02/17 09:56:27;;;;;;;;;10.25;8.00;;;;;12.71;59.47;100922.69;5013037;28;45753;-82
2022/02/17 09:58:54;;;;;;;;;12.75;8.00;;;;;12.43;59.60;100877.91;5029937;28;46641;-82
2022/02/17 10:01:20;;;;;;;;;16.50;10.75;;;;;12.59;59.66;100924.97;5030941;28;46096;-82
2022/02/17 10:03:47;;;;;;;;;10.50;8.00;;;;;12.36;59.72;100912.00;5030262;28;45645;-82
2022/02/17 10:06:15;;;;;;;;;14.25;8.00;;;;;12.18;59.55;100879.81;5030059;28;45707;-84
2022/02/17 10:08:41;;;;;;;;;10.75;8.25;;;;;12.16;59.36;100870.97;5011581;28;48455;-83
2022/02/17 10:11:24;;;;;;;;;12.25;6.75;;;;;12.18;59.41;100902.66;5029557;28;45512;-82
2022/02/17 10:14:04;;;;;;;;;9.00;5.75;;;;;12.76;59.84;101017.75;5029367;28;45883;-83
2022/02/17 10:16:29;;;;;;;;;15.25;11.00;;;;;12.66;59.77;100992.88;5030736;28;45679;-82
2022/02/17 10:19:09;;;;;;;;;16.25;13.50;;;;;12.69;59.81;100981.50;5029727;28;45490;-82
2022/02/17 10:21:34;;;;;;;;;13.00;9.75;;;;;12.31;59.39;100920.59;5027928;28;45975;-82
2022/02/17 10:24:01;;;;;;;;;14.00;12.33;;;;;12.60;59.49;100951.38;5029430;28;45796;-82
2022/02/17 10:26:28;;;;;;;;;9.25;7.00;;;;;12.88;59.09;100994.38;5029733;28;45803;-82
2022/02/17 10:28:57;;;;;;;;;9.75;8.25;;;;;13.14;59.18;101013.59;5029037;28;46564;-82
2022/02/17 10:31:26;;;;;;;;;8.75;4.25;;;;;13.32;58.51;101013.25;5011866;28;46000;-82
2022/02/17 10:33:54;;;;;;;;;9.00;7.00;;;;;13.12;58.23;100970.44;5029581;28;45775;-82
2022/02/17 10:36:37;;;;;;;;;9.00;6.75;;;;;13.64;58.64;101022.03;5030298;28;45451;-82
2022/02/17 10:39:12;;;;;;;;;9.00;7.00;;;;;13.56;58.41;100989.28;5029276;28;45540;-82
2022/02/17 10:41:48;;;;;;;;;12.00;8.75;;;;;13.68;58.03;101029.19;5029818;28;45459;-82
2022/02/17 10:44:15;;;;;;;;;10.00;7.50;;;;;12.74;57.75;100841.00;5011317;28;45624;-82
2022/02/17 10:46:41;;;;;;;;;10.25;7.25;;;;;13.54;57.70;100999.78;5029480;28;45743;-82
2022/02/17 10:49:10;;;;;;;;;7.00;6.75;;;;;13.59;57.32;101005.19;5029228;28;45628;-82
2022/02/17 10:51:36;;;;;;;;;10.25;7.25;;;;;12.53;57.34;100801.78;5028966;28;46210;-82
2022/02/17 10:54:01;;;;;;;;;8.50;7.50;;;;;13.63;56.88;101002.66;5029502;28;45394;-82
2022/02/17 10:56:30;;;;;;;;;12.75;9.75;;;;;13.78;57.27;101015.38;5011797;28;45403;-82
2022/02/17 10:59:00;;;;;;;;;10.00;8.00;;;;;13.84;57.15;101012.91;5028277;28;46202;-83
2022/02/17 11:01:26;;;;;;;;;15.50;7.25;;;;;14.08;56.67;101035.50;5029777;28;46018;-82
2022/02/17 11:03:53;;;;;;;;;5.50;5.00;;;;;13.49;56.12;100908.09;5029110;28;45361;-82
2022/02/17 11:06:18;;;;;;;;;10.00;7.75;;;;;13.99;55.95;100996.56;5028928;28;45363;-82
2022/02/17 11:08:47;;;;;;;;;14.75;7.50;;;;;13.63;56.36;100947.19;5028981;28;45606;-82
2022/02/17 11:11:15;;;;;;;;;9.75;7.50;;;;;13.66;56.11;100922.63;5029037;28;45593;-82
2022/02/17 11:13:49;;;;;;;;;9.50;8.00;;;;;13.97;55.93;100968.28;5010715;28;45471;-82
2022/02/17 11:16:17;;;;;;;;;8.25;7.25;;;;;13.94;55.87;100967.38;5029411;28;45445;-82
2022/02/17 11:18:43;;;;;;;;;9.00;6.00;;;;;14.45;55.34;101092.84;5029317;28;45582;-82
2022/02/17 11:21:15;;;;;;;;;3.75;3.75;;;;;14.40;55.00;101090.06;5028583;28;45592;-83
2022/02/17 11:23:41;;;;;;;;;8.75;7.75;;;;;14.26;55.59;101046.53;5028816;28;45395;-82